KMIB/MIB METAR and TAF weather

Enter ICAO airport designator
Station Type Date Time Source
KMIB METAR 2020/01/18 12:31 UTC NOAA

KMIB 181231Z COR AUTO 30025G34KT 8SM BLSN BKN011 M22/M26 A3011 RMK AO2A CIG 009 RWY12 SLP251 $ COR 1242


Station Type Date Time Source
KMIB Decoded METAR 2020/01/18 12:31 UTC NOAA

Minot Air Force Base, ND, United States (KMIB) 48-25N 101-21W
Jan 18, 2020 - 07:31 AM EST / 2020.01.18 1231 UTC
Wind: from the WNW (300 degrees) at 29 MPH (25 KT) gusting to 39 MPH (34 KT):0
Visibility: 8 mile(s):0
Sky conditions: mostly cloudy
Weather: blowing snow
Temperature: -7 F (-22 C)
Windchill: -34 F (-37 C):2
Dew Point: -14 F (-26 C)
Relative Humidity: 69%
Pressure (altimeter): 30.11 in. Hg (1019 hPa)
ob: KMIB 181231Z COR AUTO 30025G34KT 8SM BLSN BKN011 M22/M26 A3011 RMK AO2A CIG 009 RWY12 SLP251 COR 1242
cycle: 12

Station Type Date Time Source
KMIB TAF 2020/01/17 21:27 UTC NOAA

TAF
AMD KMIB 172131Z 1721/1823 32010G15KT 4800 -SN OVC009 620099 QNH2977INS
BECMG 1807/1808 32015G25KT 9999 NSW OVC025 620259 QNH3006INS
BECMG 1817/1818 31020G30KT 9999 BKN035 620359 510004 QNH3025INS TXM14/1721Z TNM21/1815Z LAST NO
AMDS AFT 1800 NEXT 2109

Example: see airport list